Terminal Aerodrome Forecast
Issued by NWS Missoula, MT

Home | Current Version | Previous Version | Text Only | Print | Product List | Glossary On
Versions: 1 2 3 4 5 6 7 8 9 10 11 12 13 14 15 16 17 18 19 20 21 22 23
983
FTUS45 KMSO 211125
TAFMSO
TAF
KMSO 211125Z 2112/2212 30003KT P6SM OVC080
     FM212100 32008KT P6SM BKN050
     FM220400 02015KT P6SM OVC050
     FM221000 09015G25KT P6SM VCSH OVC050=

USA.gov is the U.S. government's official web portal to all federal, state and local government web resources and services.